Time;durP1;ratioP1;P1;durP2;ratioP2;P2;SDS_P1;SDS_P2;PMS_P1;PMS_P2;Temp;Humidity;BMP_temperature;BMP_pressure;BME280_temperature;BME280_humidity;BME280_pressure;Samples;Min_cycle;Max_cycle;Signal;HPM_P1;HPM_P2
2023/03/05 00:00:55;;;;;;;8.83;2.27;;;;;;;;;;5061691;28;20082;-75
2023/03/05 00:03:21;;;;;;;12.90;2.50;;;;;;;;;;5056176;28;21637;-74
2023/03/05 00:05:47;;;;;;;11.20;2.20;;;;;;;;;;5058371;28;20025;-75
2023/03/05 00:08:13;;;;;;;8.33;2.03;;;;;;;;;;5041180;28;20063;-75
2023/03/05 00:10:39;;;;;;;13.00;2.60;;;;;;;;;;5059290;28;20056;-76
2023/03/05 00:13:06;;;;;;;13.47;2.57;;;;;;;;;;5059990;28;20028;-75
2023/03/05 00:15:34;;;;;;;12.50;2.20;;;;;;;;;;5048303;28;20534;-76
2023/03/05 00:18:00;;;;;;;10.97;2.90;;;;;;;;;;5059592;28;20021;-76
2023/03/05 00:20:26;;;;;;;16.20;2.67;;;;;;;;;;5047773;28;20033;-76
2023/03/05 00:22:54;;;;;;;16.17;3.00;;;;;;;;;;5061694;28;21004;-76
2023/03/05 00:25:20;;;;;;;12.90;2.23;;;;;;;;;;5039285;28;20473;-76
2023/03/05 00:27:46;;;;;;;12.17;2.30;;;;;;;;;;5054633;28;20031;-76
2023/03/05 00:30:13;;;;;;;10.23;1.70;;;;;;;;;;5044342;28;20440;-77
2023/03/05 00:32:41;;;;;;;14.73;2.87;;;;;;;;;;5041202;28;20032;-75
2023/03/05 00:35:07;;;;;;;9.37;1.80;;;;;;;;;;5044794;28;20036;-76
2023/03/05 00:37:33;;;;;;;12.43;2.53;;;;;;;;;;5056353;28;20036;-75
2023/03/05 00:39:59;;;;;;;12.23;2.30;;;;;;;;;;5041755;28;20118;-76
2023/03/05 00:42:25;;;;;;;14.40;2.27;;;;;;;;;;5042416;28;20047;-75
2023/03/05 00:44:51;;;;;;;15.40;2.77;;;;;;;;;;5039604;28;20036;-76
2023/03/05 00:47:17;;;;;;;14.43;2.60;;;;;;;;;;5040754;28;20029;-75
2023/03/05 00:49:43;;;;;;;9.50;2.23;;;;;;;;;;5040106;28;20037;-75
2023/03/05 00:52:09;;;;;;;14.60;2.33;;;;;;;;;;5055620;28;20058;-76
2023/03/05 00:54:35;;;;;;;12.53;2.50;;;;;;;;;;5038619;28;20071;-76
2023/03/05 00:57:01;;;;;;;11.10;2.30;;;;;;;;;;5042254;28;20047;-76
2023/03/05 00:59:29;;;;;;;11.33;2.83;;;;;;;;;;5047155;28;20268;-76
2023/03/05 01:01:58;;;;;;;10.13;1.83;;;;;;;;;;5038993;28;20063;-76
2023/03/05 01:04:24;;;;;;;14.87;2.43;;;;;;;;;;5047174;28;20438;-75
2023/03/05 01:06:50;;;;;;;10.17;2.33;;;;;;;;;;5061139;28;20020;-75
2023/03/05 01:09:16;;;;;;;12.73;2.10;;;;;;;;;;5061313;28;20032;-76
2023/03/05 01:11:42;;;;;;;9.27;2.17;;;;;;;;;;5048302;28;20034;-74
2023/03/05 01:14:08;;;;;;;14.27;2.17;;;;;;;;;;5060297;28;20041;-76
2023/03/05 01:16:34;;;;;;;15.70;2.83;;;;;;;;;;5042057;28;20060;-75
2023/03/05 01:19:00;;;;;;;14.73;3.07;;;;;;;;;;5046574;28;20551;-75
2023/03/05 01:21:26;;;;;;;12.23;2.43;;;;;;;;;;5043260;28;20028;-75
2023/03/05 01:23:52;;;;;;;10.63;1.97;;;;;;;;;;5052658;28;20052;-76
2023/03/05 01:26:18;;;;;;;14.93;2.70;;;;;;;;;;5043408;28;20033;-74
2023/03/05 01:28:44;;;;;;;9.53;2.00;;;;;;;;;;5042530;28;20052;-76
2023/03/05 01:31:10;;;;;;;15.93;2.73;;;;;;;;;;5048781;28;20040;-76
2023/03/05 01:33:39;;;;;;;8.07;1.67;;;;;;;;;;5041482;28;20735;-77
2023/03/05 01:36:14;;;;;;;12.97;2.33;;;;;;;;;;5048211;28;20056;-76
2023/03/05 01:38:41;;;;;;;17.10;2.73;;;;;;;;;;5059445;28;20028;-76
2023/03/05 01:41:07;;;;;;;16.90;2.53;;;;;;;;;;5051908;28;20036;-76
2023/03/05 01:43:33;;;;;;;11.60;1.40;;;;;;;;;;5060146;28;20031;-76
2023/03/05 01:46:16;;;;;;;12.03;2.10;;;;;;;;;;5047807;28;20094;-77
2023/03/05 01:48:43;;;;;;;7.77;1.87;;;;;;;;;;5060737;28;20114;-76
2023/03/05 01:51:09;;;;;;;20.20;2.63;;;;;;;;;;5041529;28;20519;-76
2023/03/05 01:53:36;;;;;;;12.23;2.70;;;;;;;;;;5042846;28;20041;-76
2023/03/05 01:56:02;;;;;;;8.30;2.03;;;;;;;;;;5060970;28;20048;-77
2023/03/05 01:58:28;;;;;;;8.43;1.43;;;;;;;;;;5060268;28;20868;-77
2023/03/05 02:00:55;;;;;;;10.33;2.10;;;;;;;;;;5046907;28;20052;-76
2023/03/05 02:03:22;;;;;;;18.63;2.33;;;;;;;;;;5047064;28;20142;-76
2023/03/05 02:05:48;;;;;;;9.03;1.77;;;;;;;;;;5058791;28;20429;-77
2023/03/05 02:08:18;;;;;;;17.90;2.40;;;;;;;;;;5059876;28;20059;-76
2023/03/05 02:10:47;;;;;;;11.27;2.13;;;;;;;;;;5050216;28;20097;-75
2023/03/05 02:13:16;;;;;;;13.47;2.33;;;;;;;;;;5041922;28;20033;-76
2023/03/05 02:15:42;;;;;;;9.23;1.93;;;;;;;;;;5044009;28;20029;-76
2023/03/05 02:18:09;;;;;;;6.43;1.77;;;;;;;;;;5060147;28;20102;-75
2023/03/05 02:20:45;;;;;;;14.07;2.13;;;;;;;;;;5042674;28;20028;-75
2023/03/05 02:23:11;;;;;;;6.07;1.47;;;;;;;;;;5058481;28;20029;-77
2023/03/05 02:25:37;;;;;;;11.43;1.60;;;;;;;;;;5043060;28;20115;-76
2023/03/05 02:28:24;;;;;;;9.83;1.80;;;;;;;;;;5060949;28;20116;-75
2023/03/05 02:30:53;;;;;;;7.87;1.43;;;;;;;;;;5043527;28;20824;-76
2023/03/05 02:33:19;;;;;;;8.60;1.80;;;;;;;;;;5041669;28;20452;-75
2023/03/05 02:35:45;;;;;;;9.33;1.60;;;;;;;;;;5062049;28;20277;-77
2023/03/05 02:38:12;;;;;;;9.83;1.63;;;;;;;;;;5049613;28;20036;-77
2023/03/05 02:40:38;;;;;;;7.60;1.47;;;;;;;;;;5048797;28;20028;-76
2023/03/05 02:43:04;;;;;;;8.37;1.77;;;;;;;;;;5066269;28;20020;-75
2023/03/05 02:45:32;;;;;;;9.97;2.27;;;;;;;;;;5061109;28;20044;-76
2023/03/05 02:47:58;;;;;;;9.10;2.00;;;;;;;;;;5059295;28;20025;-75
2023/03/05 02:50:25;;;;;;;12.07;1.57;;;;;;;;;;5058865;28;20025;-76
2023/03/05 02:52:51;;;;;;;11.10;2.70;;;;;;;;;;5051462;28;20279;-76
2023/03/05 02:55:17;;;;;;;13.67;1.97;;;;;;;;;;5053687;28;20322;-76
2023/03/05 02:57:46;;;;;;;11.03;2.23;;;;;;;;;;5075435;28;20024;-76
2023/03/05 03:00:12;;;;;;;4.20;1.00;;;;;;;;;;5058430;28;20028;-76
2023/03/05 03:02:38;;;;;;;7.30;1.67;;;;;;;;;;5043839;28;20037;-76
2023/03/05 03:05:05;;;;;;;6.20;1.63;;;;;;;;;;5049869;28;20358;-75
2023/03/05 03:07:33;;;;;;;7.17;1.23;;;;;;;;;;5075964;28;20034;-75
2023/03/05 03:09:59;;;;;;;6.13;1.57;;;;;;;;;;5057277;28;20107;-75
2023/03/05 03:12:25;;;;;;;3.67;1.27;;;;;;;;;;5058576;28;20754;-76
2023/03/05 03:14:51;;;;;;;10.03;1.53;;;;;;;;;;5060810;28;20040;-76
2023/03/05 03:17:17;;;;;;;9.00;1.47;;;;;;;;;;5053111;28;20101;-76
2023/03/05 03:19:44;;;;;;;11.23;1.60;;;;;;;;;;5058892;28;20082;-75
2023/03/05 03:22:10;;;;;;;9.93;2.53;;;;;;;;;;5056005;28;20029;-76
2023/03/05 03:24:37;;;;;;;10.03;2.63;;;;;;;;;;5075546;28;20437;-75
2023/03/05 03:27:03;;;;;;;9.37;2.03;;;;;;;;;;5051771;28;20094;-75
2023/03/05 03:29:32;;;;;;;4.33;1.50;;;;;;;;;;5067152;28;20033;-76
2023/03/05 03:31:58;;;;;;;8.20;2.53;;;;;;;;;;5057763;28;20449;-76
2023/03/05 03:34:24;;;;;;;7.77;2.43;;;;;;;;;;5051746;28;20040;-75
2023/03/05 03:36:51;;;;;;;11.70;2.13;;;;;;;;;;5071425;28;20024;-76
2023/03/05 03:39:18;;;;;;;9.33;1.83;;;;;;;;;;5057539;28;20036;-76
2023/03/05 03:41:44;;;;;;;8.63;1.90;;;;;;;;;;5053546;28;20024;-76
2023/03/05 03:44:11;;;;;;;12.60;2.13;;;;;;;;;;5049863;28;20044;-76
2023/03/05 03:46:38;;;;;;;12.33;2.10;;;;;;;;;;5037612;28;20456;-76
2023/03/05 03:49:04;;;;;;;8.73;2.43;;;;;;;;;;5055884;28;20381;-76
2023/03/05 03:51:30;;;;;;;12.03;2.57;;;;;;;;;;5075109;28;20028;-74
2023/03/05 03:53:56;;;;;;;8.23;2.50;;;;;;;;;;5052830;28;20035;-76
2023/03/05 03:56:22;;;;;;;13.60;2.20;;;;;;;;;;5072236;28;20056;-75
2023/03/05 03:58:52;;;;;;;17.90;3.00;;;;;;;;;;5062254;28;20067;-76
2023/03/05 04:01:19;;;;;;;17.43;2.37;;;;;;;;;;5055679;28;20028;-74
2023/03/05 04:03:46;;;;;;;10.67;2.03;;;;;;;;;;5047266;28;20119;-75
2023/03/05 04:06:12;;;;;;;14.00;3.17;;;;;;;;;;5040624;28;20357;-76
2023/03/05 04:08:38;;;;;;;12.07;3.57;;;;;;;;;;5053514;28;20090;-76
2023/03/05 04:11:04;;;;;;;14.53;3.90;;;;;;;;;;5053518;28;20101;-76
2023/03/05 04:13:30;;;;;;;6.60;2.13;;;;;;;;;;5063573;28;20037;-76
2023/03/05 04:15:56;;;;;;;16.70;2.67;;;;;;;;;;5043967;28;20048;-76
2023/03/05 04:18:22;;;;;;;9.40;2.30;;;;;;;;;;5049406;28;20353;-77
2023/03/05 04:20:48;;;;;;;13.93;2.33;;;;;;;;;;5044611;28;20024;-77
2023/03/05 04:23:15;;;;;;;12.73;2.00;;;;;;;;;;5058646;28;20509;-76
2023/03/05 04:25:41;;;;;;;16.50;1.73;;;;;;;;;;5058953;28;20037;-76
2023/03/05 04:28:07;;;;;;;12.70;2.23;;;;;;;;;;5049403;28;20374;-75
2023/03/05 04:30:35;;;;;;;7.80;1.97;;;;;;;;;;5060528;28;20043;-76
2023/03/05 04:33:01;;;;;;;18.33;2.73;;;;;;;;;;5058685;28;20090;-74
2023/03/05 04:35:27;;;;;;;8.77;2.00;;;;;;;;;;5039375;28;20044;-75
2023/03/05 04:37:56;;;;;;;15.03;2.20;;;;;;;;;;5041024;28;20024;-76
2023/03/05 04:40:22;;;;;;;11.37;2.10;;;;;;;;;;5040868;28;20056;-75
2023/03/05 04:42:48;;;;;;;8.67;1.97;;;;;;;;;;5056141;28;20126;-76
2023/03/05 04:45:16;;;;;;;6.70;1.93;;;;;;;;;;5041500;28;20033;-76
2023/03/05 04:47:42;;;;;;;12.00;2.60;;;;;;;;;;5058720;28;20039;-76
2023/03/05 04:50:08;;;;;;;8.03;1.97;;;;;;;;;;5057938;28;20389;-76
2023/03/05 04:52:34;;;;;;;7.53;2.07;;;;;;;;;;5059156;28;20025;-75
2023/03/05 04:55:02;;;;;;;7.70;2.07;;;;;;;;;;5061835;28;20062;-75
2023/03/05 04:57:28;;;;;;;16.90;2.57;;;;;;;;;;5059706;28;20032;-76
2023/03/05 04:59:54;;;;;;;10.57;2.67;;;;;;;;;;5057953;28;20037;-75
2023/03/05 05:02:20;;;;;;;12.93;2.67;;;;;;;;;;5056641;28;20053;-76
2023/03/05 05:04:46;;;;;;;12.87;2.97;;;;;;;;;;5046101;28;20059;-76
2023/03/05 05:07:12;;;;;;;8.80;1.73;;;;;;;;;;5057747;28;20033;-76
2023/03/05 05:09:40;;;;;;;9.47;2.03;;;;;;;;;;5057298;28;20031;-77
2023/03/05 05:12:09;;;;;;;9.47;2.30;;;;;;;;;;5040356;28;20037;-76
2023/03/05 05:14:35;;;;;;;15.47;3.07;;;;;;;;;;5056741;28;20033;-75
2023/03/05 05:17:04;;;;;;;9.27;1.73;;;;;;;;;;5042313;28;20024;-75
2023/03/05 05:19:30;;;;;;;14.33;2.73;;;;;;;;;;5038464;28;20037;-75
2023/03/05 05:21:56;;;;;;;13.00;1.70;;;;;;;;;;5055153;28;20029;-76
2023/03/05 05:24:22;;;;;;;6.00;1.80;;;;;;;;;;5057834;28;20021;-76
2023/03/05 05:26:48;;;;;;;11.93;3.17;;;;;;;;;;5037853;28;20442;-75
2023/03/05 05:29:14;;;;;;;8.43;2.67;;;;;;;;;;5039136;28;20039;-75
2023/03/05 05:31:40;;;;;;;8.67;2.47;;;;;;;;;;5039649;28;20054;-76
2023/03/05 05:34:06;;;;;;;10.57;1.73;;;;;;;;;;5038386;28;20033;-75
2023/03/05 05:36:32;;;;;;;8.93;2.10;;;;;;;;;;5041778;28;20040;-75
2023/03/05 05:38:58;;;;;;;8.23;2.20;;;;;;;;;;5057492;28;20029;-75
2023/03/05 05:41:24;;;;;;;21.07;2.50;;;;;;;;;;5039451;28;20035;-75
2023/03/05 05:43:50;;;;;;;13.03;2.47;;;;;;;;;;5056484;28;20921;-76
2023/03/05 05:46:18;;;;;;;11.17;3.20;;;;;;;;;;5056613;28;20024;-76
2023/03/05 05:48:47;;;;;;;6.60;2.07;;;;;;;;;;5054525;28;20614;-75
2023/03/05 05:51:18;;;;;;;14.47;2.90;;;;;;;;;;5045615;28;20369;-76
2023/03/05 05:53:44;;;;;;;14.43;2.20;;;;;;;;;;5044183;28;20033;-76
2023/03/05 05:56:13;;;;;;;8.47;2.20;;;;;;;;;;5042563;28;20037;-75
2023/03/05 05:58:40;;;;;;;15.30;2.40;;;;;;;;;;5042550;28;20041;-76
2023/03/05 06:01:13;;;;;;;13.20;2.53;;;;;;;;;;5058698;28;21845;-76
2023/03/05 06:03:42;;;;;;;10.80;2.60;;;;;;;;;;5051518;28;20020;-75
2023/03/05 06:06:09;;;;;;;15.47;2.67;;;;;;;;;;5056545;28;20037;-75
2023/03/05 06:08:35;;;;;;;11.00;3.50;;;;;;;;;;5043021;28;20029;-75
2023/03/05 06:11:01;;;;;;;16.27;3.00;;;;;;;;;;5044979;28;20106;-75
2023/03/05 06:13:27;;;;;;;22.73;3.07;;;;;;;;;;5049384;28;20117;-76
2023/03/05 06:15:59;;;;;;;11.13;2.80;;;;;;;;;;5045918;28;20394;-75
2023/03/05 06:18:27;;;;;;;16.02;2.95;;;;;;;;;;5042799;28;20032;-75
2023/03/05 06:20:59;;;;;;;13.27;2.63;;;;;;;;;;5039928;28;20043;-74
2023/03/05 06:23:27;;;;;;;16.23;3.47;;;;;;;;;;5042934;28;20484;-75
2023/03/05 06:25:54;;;;;;;11.57;2.30;;;;;;;;;;5045586;28;20520;-77
2023/03/05 06:28:20;;;;;;;14.57;2.80;;;;;;;;;;5059528;28;20111;-76
2023/03/05 06:30:46;;;;;;;14.70;2.90;;;;;;;;;;5043385;28;20034;-76
2023/03/05 06:33:12;;;;;;;12.17;2.57;;;;;;;;;;5042829;28;20032;-76
2023/03/05 06:35:39;;;;;;;9.10;2.90;;;;;;;;;;5047501;28;20033;-76
2023/03/05 06:38:05;;;;;;;15.90;3.13;;;;;;;;;;5060724;28;20055;-76
2023/03/05 06:40:31;;;;;;;12.17;2.70;;;;;;;;;;5060494;28;20032;-76
2023/03/05 06:42:57;;;;;;;14.97;2.10;;;;;;;;;;5061485;28;20046;-76
2023/03/05 06:45:23;;;;;;;14.60;2.77;;;;;;;;;;5062809;28;20021;-75
2023/03/05 06:47:49;;;;;;;11.57;2.73;;;;;;;;;;5056484;28;20458;-76
2023/03/05 06:50:15;;;;;;;10.00;2.73;;;;;;;;;;5041810;28;20020;-77
2023/03/05 06:52:42;;;;;;;15.00;2.83;;;;;;;;;;5042061;28;20039;-76
2023/03/05 06:55:09;;;;;;;17.00;3.10;;;;;;;;;;5056738;28;20051;-76
2023/03/05 06:57:36;;;;;;;15.17;3.30;;;;;;;;;;5058879;28;20072;-76
2023/03/05 07:00:06;;;;;;;6.27;2.73;;;;;;;;;;5060648;28;20064;-76
2023/03/05 07:02:32;;;;;;;10.40;3.30;;;;;;;;;;5043116;28;20021;-76
2023/03/05 07:04:58;;;;;;;14.50;3.83;;;;;;;;;;5045750;28;20028;-77
2023/03/05 07:07:24;;;;;;;16.30;3.90;;;;;;;;;;5061997;28;20537;-76
2023/03/05 07:09:52;;;;;;;11.57;3.87;;;;;;;;;;5047675;28;20036;-77
2023/03/05 07:12:21;;;;;;;8.43;3.90;;;;;;;;;;5054936;28;20029;-77
2023/03/05 07:14:47;;;;;;;17.90;5.90;;;;;;;;;;5059822;28;20044;-77
2023/03/05 07:17:14;;;;;;;17.90;3.97;;;;;;;;;;5049967;28;20029;-77
2023/03/05 07:19:40;;;;;;;16.00;4.37;;;;;;;;;;5042874;28;20083;-76
2023/03/05 07:22:07;;;;;;;13.17;3.23;;;;;;;;;;5044942;28;20024;-77
2023/03/05 07:24:33;;;;;;;17.73;3.47;;;;;;;;;;5046611;28;20024;-75
2023/03/05 07:26:59;;;;;;;17.33;3.67;;;;;;;;;;5051627;28;20153;-76
2023/03/05 07:29:26;;;;;;;12.67;3.30;;;;;;;;;;5050458;28;20037;-76
2023/03/05 07:31:54;;;;;;;11.40;3.60;;;;;;;;;;5042011;28;20032;-76
2023/03/05 07:34:20;;;;;;;14.40;3.77;;;;;;;;;;5057158;28;20095;-77
2023/03/05 07:36:50;;;;;;;10.13;3.70;;;;;;;;;;5043176;28;20033;-76
2023/03/05 07:39:17;;;;;;;15.50;3.70;;;;;;;;;;5041752;28;20040;-76
2023/03/05 07:41:44;;;;;;;15.07;4.07;;;;;;;;;;5059847;28;20032;-76
2023/03/05 07:44:10;;;;;;;9.20;3.37;;;;;;;;;;5041541;28;20032;-76
2023/03/05 07:46:36;;;;;;;9.03;2.90;;;;;;;;;;5042218;28;20041;-76
2023/03/05 07:49:02;;;;;;;14.70;3.67;;;;;;;;;;5049750;28;20477;-77
2023/03/05 07:51:28;;;;;;;15.27;3.70;;;;;;;;;;5058443;28;20052;-76
2023/03/05 07:53:56;;;;;;;12.20;3.57;;;;;;;;;;5059180;28;20901;-77
2023/03/05 07:56:22;;;;;;;8.10;2.93;;;;;;;;;;5058686;28;20475;-77
2023/03/05 07:58:48;;;;;;;9.67;3.27;;;;;;;;;;5043861;28;20043;-76
2023/03/05 08:01:14;;;;;;;12.13;3.70;;;;;;;;;;5056624;28;20029;-75
2023/03/05 08:03:41;;;;;;;12.17;3.40;;;;;;;;;;5056843;28;20021;-76
2023/03/05 08:06:08;;;;;;;18.00;4.20;;;;;;;;;;5057717;28;20065;-76
2023/03/05 08:08:35;;;;;;;12.20;3.10;;;;;;;;;;5046232;28;20029;-75
2023/03/05 08:11:05;;;;;;;16.97;2.93;;;;;;;;;;5041281;28;20053;-75
2023/03/05 08:13:31;;;;;;;11.63;3.03;;;;;;;;;;5047089;28;20473;-77
2023/03/05 08:15:57;;;;;;;14.17;2.93;;;;;;;;;;5059198;28;20372;-77
2023/03/05 08:18:29;;;;;;;9.80;3.07;;;;;;;;;;5039079;28;20029;-76
2023/03/05 08:20:58;;;;;;;9.82;3.65;;;;;;;;;;5040569;28;20033;-77
2023/03/05 08:23:24;;;;;;;13.07;3.80;;;;;;;;;;5041462;28;20024;-76
2023/03/05 08:25:50;;;;;;;8.20;3.23;;;;;;;;;;5056637;28;20040;-76
2023/03/05 08:28:18;;;;;;;9.07;3.07;;;;;;;;;;5044905;28;20384;-77
2023/03/05 08:30:44;;;;;;;11.30;3.47;;;;;;;;;;5057276;28;20041;-77
2023/03/05 08:33:10;;;;;;;8.67;3.13;;;;;;;;;;5051648;28;21716;-76
2023/03/05 08:35:37;;;;;;;8.73;3.27;;;;;;;;;;5039146;28;20029;-76
2023/03/05 08:38:03;;;;;;;14.83;4.40;;;;;;;;;;5039347;28;20454;-77
2023/03/05 08:40:29;;;;;;;19.37;4.43;;;;;;;;;;5057813;28;20116;-76
2023/03/05 08:42:55;;;;;;;11.60;4.00;;;;;;;;;;5050465;28;20125;-77
2023/03/05 08:45:22;;;;;;;10.87;3.70;;;;;;;;;;5048810;28;20021;-76
2023/03/05 08:47:48;;;;;;;12.73;4.13;;;;;;;;;;5057465;28;20025;-76
2023/03/05 08:50:14;;;;;;;12.13;4.27;;;;;;;;;;5057198;28;20032;-75
2023/03/05 08:52:40;;;;;;;14.80;4.53;;;;;;;;;;5074776;28;20083;-76
2023/03/05 08:55:06;;;;;;;14.37;4.00;;;;;;;;;;5057153;28;20329;-76
2023/03/05 08:57:32;;;;;;;17.97;4.63;;;;;;;;;;5057549;28;20043;-77
2023/03/05 08:59:58;;;;;;;16.13;4.50;;;;;;;;;;5055656;28;20024;-76
2023/03/05 09:02:24;;;;;;;14.63;4.67;;;;;;;;;;5057092;28;20429;-76
2023/03/05 09:04:50;;;;;;;16.23;4.60;;;;;;;;;;5057441;28;20116;-77
2023/03/05 09:07:16;;;;;;;12.83;3.83;;;;;;;;;;5049220;28;20052;-76
2023/03/05 09:09:42;;;;;;;18.13;4.50;;;;;;;;;;5059779;28;20051;-77
2023/03/05 09:12:08;;;;;;;13.20;4.53;;;;;;;;;;5070231;28;20029;-77
2023/03/05 09:14:34;;;;;;;13.57;4.27;;;;;;;;;;5067317;28;20040;-76
2023/03/05 09:17:01;;;;;;;17.17;4.83;;;;;;;;;;5057010;28;20078;-77
2023/03/05 09:19:27;;;;;;;16.03;4.97;;;;;;;;;;5056833;28;20119;-77
2023/03/05 09:21:53;;;;;;;15.23;5.40;;;;;;;;;;5054891;28;20040;-76
2023/03/05 09:24:19;;;;;;;13.33;4.00;;;;;;;;;;5057631;28;20028;-76
2023/03/05 09:26:45;;;;;;;13.13;3.90;;;;;;;;;;5058614;28;20480;-76
2023/03/05 09:29:11;;;;;;;15.70;4.87;;;;;;;;;;5060772;28;20040;-76
2023/03/05 09:31:37;;;;;;;12.47;4.40;;;;;;;;;;5063020;28;20337;-77
2023/03/05 09:34:04;;;;;;;14.07;4.23;;;;;;;;;;5059014;28;20330;-76
2023/03/05 09:36:31;;;;;;;10.90;3.93;;;;;;;;;;5067086;28;20051;-77
2023/03/05 09:38:57;;;;;;;15.30;4.80;;;;;;;;;;5059226;28;20028;-76
2023/03/05 09:41:28;;;;;;;18.03;5.40;;;;;;;;;;5069598;28;20051;-77
2023/03/05 09:44:02;;;;;;;16.30;5.03;;;;;;;;;;5050381;28;20341;-77
2023/03/05 09:46:39;;;;;;;13.23;4.83;;;;;;;;;;5073799;28;20113;-76
2023/03/05 09:49:05;;;;;;;17.07;5.13;;;;;;;;;;5047123;28;20483;-77
2023/03/05 09:51:34;;;;;;;14.03;5.20;;;;;;;;;;5060745;28;20046;-77
2023/03/05 09:54:13;;;;;;;17.27;5.40;;;;;;;;;;5069940;28;20020;-76
2023/03/05 09:56:49;;;;;;;8.67;3.97;;;;;;;;;;5071706;28;20452;-77
2023/03/05 09:59:28;;;;;;;14.13;5.27;;;;;;;;;;5060309;28;20123;-77
2023/03/05 10:01:57;;;;;;;19.63;7.30;;;;;;;;;;5058412;28;20547;-76
2023/03/05 10:04:32;;;;;;;14.23;5.93;;;;;;;;;;5077138;28;20049;-76
2023/03/05 10:07:03;;;;;;;14.77;6.07;;;;;;;;;;5059182;28;20104;-77
2023/03/05 10:09:44;;;;;;;12.60;5.40;;;;;;;;;;5070455;28;20451;-77
2023/03/05 10:12:10;;;;;;;18.67;6.27;;;;;;;;;;5051451;28;20052;-76
2023/03/05 10:14:39;;;;;;;11.03;6.77;;;;;;;;;;5059920;28;20044;-76
2023/03/05 10:17:16;;;;;;;15.60;7.57;;;;;;;;;;5052569;28;20053;-76
2023/03/05 10:19:47;;;;;;;17.53;9.60;;;;;;;;;;5062566;28;20510;-75
2023/03/05 10:22:31;;;;;;;17.67;11.05;;;;;;;;;;5060321;28;20465;-76
2023/03/05 10:25:17;;;;;;;18.70;10.80;;;;;;;;;;5044165;28;20043;-76
2023/03/05 10:27:51;;;;;;;14.87;10.30;;;;;;;;;;5042778;28;20033;-76
2023/03/05 10:30:32;;;;;;;16.20;9.77;;;;;;;;;;5059741;28;20036;-75
2023/03/05 10:33:01;;;;;;;19.23;11.03;;;;;;;;;;5043002;28;20029;-76
2023/03/05 10:35:34;;;;;;;23.60;11.00;;;;;;;;;;5060774;28;20032;-75
2023/03/05 10:38:11;;;;;;;15.13;8.82;;;;;;;;;;5044937;28;20036;-76
2023/03/05 10:40:54;;;;;;;22.60;9.17;;;;;;;;;;5059037;28;20029;-76
2023/03/05 10:43:27;;;;;;;16.57;9.90;;;;;;;;;;5059385;28;20017;-76
2023/03/05 10:45:54;;;;;;;19.42;10.57;;;;;;;;;;5051306;28;20032;-76
2023/03/05 10:48:41;;;;;;;25.80;10.47;;;;;;;;;;5041131;28;20465;-76
2023/03/05 10:51:13;;;;;;;16.10;10.13;;;;;;;;;;5060670;28;20809;-75
2023/03/05 10:53:48;;;;;;;17.85;10.52;;;;;;;;;;5046599;28;20029;-77
2023/03/05 10:56:15;;;;;;;18.03;11.17;;;;;;;;;;5041953;28;20025;-76
2023/03/05 10:58:41;;;;;;;23.30;12.83;;;;;;;;;;5049376;28;20025;-77
2023/03/05 11:01:10;;;;;;;15.57;11.03;;;;;;;;;;5059561;28;20079;-77
2023/03/05 11:03:50;;;;;;;20.00;10.20;;;;;;;;;;5060665;28;20039;-77
2023/03/05 11:06:26;;;;;;;16.90;9.43;;;;;;;;;;5059556;28;20036;-76
2023/03/05 11:08:52;;;;;;;11.93;8.33;;;;;;;;;;5058645;28;20095;-76
2023/03/05 11:11:19;;;;;;;17.23;9.93;;;;;;;;;;5042872;28;20029;-77
2023/03/05 11:13:53;;;;;;;16.03;8.73;;;;;;;;;;5043900;28;20059;-76
2023/03/05 11:16:24;;;;;;;12.57;8.57;;;;;;;;;;5054204;28;20029;-76
2023/03/05 11:18:54;;;;;;;11.77;8.10;;;;;;;;;;5060252;28;20457;-76
2023/03/05 11:21:26;;;;;;;15.00;7.63;;;;;;;;;;5058693;28;20221;-76
2023/03/05 11:24:12;;;;;;;9.33;6.30;;;;;;;;;;5058735;28;20086;-76
2023/03/05 11:26:45;;;;;;;10.03;7.47;;;;;;;;;;5048548;28;20020;-75
2023/03/05 11:29:16;;;;;;;14.60;7.32;;;;;;;;;;5058792;28;20033;-75
2023/03/05 11:31:42;;;;;;;8.50;6.50;;;;;;;;;;5042076;28;20903;-76
2023/03/05 11:34:17;;;;;;;14.27;8.47;;;;;;;;;;5042477;28;20052;-76
2023/03/05 11:37:02;;;;;;;10.83;7.10;;;;;;;;;;5042178;28;20165;-77
2023/03/05 11:39:31;;;;;;;13.87;7.87;;;;;;;;;;5059398;28;20426;-76
2023/03/05 11:42:10;;;;;;;13.73;7.77;;;;;;;;;;5042156;28;20082;-76
2023/03/05 11:44:51;;;;;;;14.23;8.03;;;;;;;;;;5058732;28;20025;-77
2023/03/05 11:47:33;;;;;;;18.63;9.03;;;;;;;;;;5041471;28;20045;-77
2023/03/05 11:50:05;;;;;;;12.18;8.15;;;;;;;;;;5058332;28;20671;-76
2023/03/05 11:52:34;;;;;;;16.25;8.65;;;;;;;;;;5060380;28;20036;-76
2023/03/05 11:55:06;;;;;;;12.30;7.73;;;;;;;;;;5045295;28;20033;-76
2023/03/05 11:57:34;;;;;;;11.15;7.55;;;;;;;;;;5040940;28;20117;-75
2023/03/05 12:00:06;;;;;;;13.07;7.40;;;;;;;;;;5058454;28;20471;-74
2023/03/05 12:02:32;;;;;;;10.95;7.03;;;;;;;;;;5041458;28;20028;-76
2023/03/05 12:05:02;;;;;;;9.83;6.63;;;;;;;;;;5058470;28;20311;-77
2023/03/05 12:07:39;;;;;;;14.20;5.93;;;;;;;;;;5057872;28;20064;-77
2023/03/05 12:10:06;;;;;;;13.17;6.70;;;;;;;;;;5055926;28;20037;-76
2023/03/05 12:12:47;;;;;;;12.90;6.63;;;;;;;;;;5059365;28;20052;-76
2023/03/05 12:15:16;;;;;;;7.07;5.70;;;;;;;;;;5040883;28;20086;-76
2023/03/05 12:17:49;;;;;;;8.80;5.57;;;;;;;;;;5056926;28;20037;-76
2023/03/05 12:20:24;;;;;;;8.27;5.67;;;;;;;;;;5040053;28;20040;-76
2023/03/05 12:22:51;;;;;;;9.87;5.77;;;;;;;;;;5049012;28;20116;-77
2023/03/05 12:25:23;;;;;;;11.27;6.07;;;;;;;;;;5044541;28;20025;-74
2023/03/05 12:27:49;;;;;;;12.30;5.72;;;;;;;;;;5060140;28;20035;-76
2023/03/05 12:30:33;;;;;;;10.33;5.80;;;;;;;;;;5056276;28;20033;-76
2023/03/05 12:33:02;;;;;;;8.93;6.43;;;;;;;;;;5039350;28;20148;-75
2023/03/05 12:35:30;;;;;;;9.07;4.97;;;;;;;;;;5040193;28;20113;-76
2023/03/05 12:37:56;;;;;;;11.73;5.17;;;;;;;;;;5056318;28;20464;-76
2023/03/05 12:40:24;;;;;;;11.80;5.03;;;;;;;;;;5055538;28;20033;-76
2023/03/05 12:43:03;;;;;;;8.00;4.57;;;;;;;;;;5055665;28;20055;-77
2023/03/05 12:45:31;;;;;;;6.53;3.97;;;;;;;;;;5042115;28;20033;-77
2023/03/05 12:47:57;;;;;;;9.17;4.20;;;;;;;;;;5039542;28;20035;-77
2023/03/05 12:50:29;;;;;;;5.67;4.07;;;;;;;;;;5060193;28;20025;-77
2023/03/05 12:52:56;;;;;;;6.15;4.80;;;;;;;;;;5047518;28;20124;-76
2023/03/05 12:55:23;;;;;;;6.70;3.97;;;;;;;;;;5043710;28;20037;-76
2023/03/05 12:57:56;;;;;;;6.83;4.03;;;;;;;;;;5045823;28;20120;-77
2023/03/05 13:00:25;;;;;;;10.20;4.13;;;;;;;;;;5061343;28;20033;-76
2023/03/05 13:02:56;;;;;;;6.03;3.83;;;;;;;;;;5046768;28;20036;-77
2023/03/05 13:05:28;;;;;;;8.47;4.07;;;;;;;;;;5046194;28;20453;-76
2023/03/05 13:08:08;;;;;;;6.28;4.55;;;;;;;;;;5058858;28;21784;-77
2023/03/05 13:10:36;;;;;;;9.70;4.30;;;;;;;;;;5061028;28;20079;-77
2023/03/05 13:13:02;;;;;;;8.47;3.87;;;;;;;;;;5062185;28;20028;-75
2023/03/05 13:15:29;;;;;;;6.83;4.30;;;;;;;;;;5052870;28;20074;-77
2023/03/05 13:18:00;;;;;;;12.70;5.90;;;;;;;;;;5048853;28;20029;-76
2023/03/05 13:20:38;;;;;;;10.60;6.68;;;;;;;;;;5060445;28;20115;-76
2023/03/05 13:23:04;;;;;;;13.23;6.70;;;;;;;;;;5060092;28;20040;-77
2023/03/05 13:25:30;;;;;;;15.30;8.13;;;;;;;;;;5060055;28;20020;-75
2023/03/05 13:28:13;;;;;;;10.93;7.80;;;;;;;;;;5044980;28;20033;-77
2023/03/05 13:30:39;;;;;;;;;;;;;;;;;;5065133;28;20036;-75
2023/03/05 13:33:05;;;;;;;14.03;7.30;;;;;;;;;;5043531;28;19916;-76
2023/03/05 13:35:32;;;;;;;11.40;7.90;;;;;;;;;;5043484;28;20025;-77
2023/03/05 13:37:58;;;;;;;10.83;8.00;;;;;;;;;;5042254;28;20024;-76
2023/03/05 13:40:25;;;;;;;13.53;8.10;;;;;;;;;;5045906;28;20036;-76
2023/03/05 13:42:55;;;;;;;13.67;8.07;;;;;;;;;;5042320;28;20020;-76
2023/03/05 13:45:24;;;;;;;13.97;7.73;;;;;;;;;;5046169;28;20021;-76
2023/03/05 13:47:54;;;;;;;16.50;8.77;;;;;;;;;;5046991;28;20029;-75
2023/03/05 13:50:28;;;;;;;14.17;7.23;;;;;;;;;;5048467;28;20500;-76
2023/03/05 13:52:55;;;;;;;14.20;6.97;;;;;;;;;;5061325;28;20025;-76
2023/03/05 13:55:21;;;;;;;14.60;8.07;;;;;;;;;;5046885;28;20032;-76
2023/03/05 13:57:54;;;;;;;9.20;6.70;;;;;;;;;;5060406;28;20028;-76
2023/03/05 14:00:34;;;;;;;12.03;7.80;;;;;;;;;;5061985;28;20047;-76
2023/03/05 14:03:07;;;;;;;12.60;8.60;;;;;;;;;;5060245;28;20226;-76
2023/03/05 14:05:33;;;;;;;11.37;8.03;;;;;;;;;;5062171;28;20029;-77
2023/03/05 14:08:02;;;;;;;13.23;9.37;;;;;;;;;;5044184;28;20043;-76
2023/03/05 14:10:28;;;;;;;15.60;8.50;;;;;;;;;;5059960;28;20032;-77
2023/03/05 14:12:56;;;;;;;14.63;8.50;;;;;;;;;;5060503;28;20093;-76
2023/03/05 14:15:22;;;;;;;16.10;9.00;;;;;;;;;;5058816;28;20449;-76
2023/03/05 14:17:48;;;;;;;10.83;7.83;;;;;;;;;;5059134;28;20037;-76
2023/03/05 14:20:20;;;;;;;14.07;9.07;;;;;;;;;;5052122;28;20032;-76
2023/03/05 14:22:49;;;;;;;15.60;8.00;;;;;;;;;;5060258;28;20037;-76
2023/03/05 14:25:25;;;;;;;14.10;7.77;;;;;;;;;;5059648;28;20104;-75
2023/03/05 14:27:51;;;;;;;13.43;8.00;;;;;;;;;;5059910;28;20024;-77
2023/03/05 14:30:19;;;;;;;12.37;7.87;;;;;;;;;;5058911;28;20033;-75
2023/03/05 14:32:45;;;;;;;11.30;7.77;;;;;;;;;;5050708;28;20103;-76
2023/03/05 14:35:19;;;;;;;8.30;6.73;;;;;;;;;;5060596;28;20024;-77
2023/03/05 14:37:50;;;;;;;14.97;8.60;;;;;;;;;;5058531;28;20029;-77
2023/03/05 14:40:20;;;;;;;11.47;7.87;;;;;;;;;;5058992;28;20087;-77